• Join FlightAware (Why Join?)
  • Login
  • US Flag 
08:42PM EDT


 

Airport Tracker/Info


-or-


 

Live Flight TrackerFlight Track Log ✈ D-ALPF ✈ 02-Jun-2012 ✈ EDDL / DUS - KRSW

Flight Track Log - Related Links

Times and Time Zones

All times are in EDT time to prevent confusion due to time zone crossing. See the D-ALPF flight status page for this flight to view local times or setup timezone preferences in your user account.

Time Position Orientation Groundspeed Altitude Reporting Facility
EDT Latitude Longitude Course Direction KTS MPH feet Rate Location/Type
04:44AM 51.6568 5.0357 266° West  Level FlightAware Approximate
04:45AM 51.6938 4.8525 264° West  Level FlightAware Approximate
04:46AM 51.7306 4.6690 262° West  Level FlightAware Approximate
04:47AM 51.7671 4.4852 260° West  Level FlightAware Approximate
04:48AM 51.8033 4.3012 257° West  Level FlightAware Approximate
04:49AM 51.8392 4.1168 253° West  Level FlightAware Approximate
04:50AM 51.8748 3.9321 249° West  Level FlightAware Approximate
04:51AM 51.9101 3.7472 244° Southwest  Level FlightAware Approximate
04:52AM 51.9451 3.5619 237° Southwest  Level FlightAware Approximate
04:53AM 51.9799 3.3764 230° Southwest  Level FlightAware Approximate
04:54AM 52.0143 3.1906 221° Southwest  Level FlightAware Approximate
04:55AM 52.0485 3.0045 210° Southwest  Level FlightAware Approximate
04:56AM 52.0750 2.8162 198° South  Level FlightAware Approximate
04:57AM 52.1090 2.6298 187° South  Level FlightAware Approximate
04:58AM 52.1429 2.4432 175° South  Level FlightAware Approximate
04:59AM 52.1762 2.2561 166° South  Level FlightAware Approximate
05:00AM 52.2091 2.0687 157° South  Level FlightAware Approximate
05:01AM 52.2417 1.8811 151° Southeast  Level FlightAware Approximate
05:02AM 52.2741 1.6932 145° Southeast  Level FlightAware Approximate
05:03AM 52.3061 1.5050 141° Southeast  Level FlightAware Approximate
05:04AM 52.3277 1.3179 137° Southeast  Level FlightAware Approximate
05:05AM 52.3591 1.1292 134° Southeast  Level FlightAware Approximate
05:06AM 52.3903 0.9402 131° Southeast  Level FlightAware Approximate
05:08AM 51.5270 2.5228 276° West 417 480 36,000  Level FlightAware ADS-B
05:09AM 51.5326 2.4317 275° West 420 483 36,000  Level FlightAware ADS-B
05:09AM 51.5394 2.3163 275° West 420 483 36,000  Level FlightAware ADS-B
05:10AM 51.5451 2.2182 275° West 418 481 36,000  Level FlightAware ADS-B
05:10AM 51.5506 2.1226 275° West 416 479 36,000  Level FlightAware ADS-B
05:11AM 51.5565 2.0190 275° West 414 476 36,000  Level FlightAware ADS-B
05:12AM 51.5640 1.8838 275° West 411 473 36,000  Level FlightAware ADS-B
05:15AM 51.5981 1.2539 275° West 408 470 36,000  Level FlightAware ADS-B
05:15AM 51.6035 1.1615 275° West 408 470 36,000  Level FlightAware ADS-B
05:16AM 51.6094 1.0614 275° West 407 468 36,000  Level FlightAware ADS-B
05:17AM 51.6146 0.9706 275° West 406 467 36,000  Level FlightAware ADS-B
05:17AM 51.6200 0.8732 275° West 405 466 36,000  Level FlightAware ADS-B
05:18AM 51.6248 0.7861 275° West 406 467 36,000  Level FlightAware ADS-B
05:18AM 51.6299 0.6930 275° West 406 467 36,000  Level FlightAware ADS-B
05:19AM 51.6348 0.6034 275° West 408 470 36,000  Level FlightAware ADS-B
05:19AM 51.6397 0.5113 275° West 409 471 36,000  Level FlightAware ADS-B
05:20AM 51.6449 0.4113 275° West 409 471 36,000  Level FlightAware ADS-B
05:20AM 51.6496 0.3190 275° West 409 471 36,000  Level FlightAware ADS-B
05:21AM 51.6547 0.2193 275° West 410 472 36,000  Level FlightAware ADS-B
05:21AM 51.6593 0.1260 274° West 411 473 36,000  Level FlightAware ADS-B
05:22AM 51.6638 0.0327 275° West 411 473 36,000  Level FlightAware ADS-B
05:22AM 51.6683 -0.0591 274° West 411 473 36,000  Level FlightAware ADS-B
05:23AM 51.6727 -0.1534 274° West 412 474 36,000  Level FlightAware ADS-B
05:23AM 51.6771 -0.2471 274° West 413 475 36,000  Level FlightAware ADS-B
05:24AM 51.6813 -0.3384 274° West 413 475 36,000  Level FlightAware ADS-B
05:24AM 51.6856 -0.4350 274° West 413 475 36,000  Level FlightAware ADS-B
05:25AM 51.6897 -0.5265 274° West 413 475 36,000  Level FlightAware ADS-B
05:25AM 51.6939 -0.6252 274° West 414 476 36,000  Level FlightAware ADS-B
05:26AM 51.6968 -0.6932 274° West 414 476 36,000  Level FlightAware ADS-B
05:26AM 51.7021 -0.8190 274° West 415 478 36,000  Level FlightAware ADS-B
05:27AM 51.7060 -0.9136 274° West 416 479 36,000  Level FlightAware ADS-B
05:27AM 51.7097 -1.0064 274° West 417 480 36,000  Level FlightAware ADS-B
05:28AM 51.7136 -1.1075 274° West 417 480 36,000  Level FlightAware ADS-B
05:28AM 51.7172 -1.2017 274° West 417 480 36,000  Level FlightAware ADS-B
05:29AM 51.7209 -1.2998 273° West 416 479 36,000  Level FlightAware ADS-B
05:29AM 51.7243 -1.3925 273° West 416 479 36,000  Level FlightAware ADS-B
05:30AM 51.7277 -1.4857 277° West 415 478 36,000  Level FlightAware ADS-B
05:30AM 51.7345 -1.5790 278° West 413 475 36,000  Level FlightAware ADS-B
05:31AM 51.7426 -1.6718 277° West 413 475 36,000  Level FlightAware ADS-B
05:32AM 51.7505 -1.7698 277° West 412 474 36,000  Level FlightAware ADS-B
05:32AM 51.7576 -1.8634 277° West 413 475 36,000  Level FlightAware ADS-B
05:33AM 51.7650 -1.9631 277° West 414 476 36,000  Level FlightAware ADS-B
05:33AM 51.7713 -2.0487 277° West 414 476 36,000  Level FlightAware ADS-B
05:34AM 51.7780 -2.1395 277° West 415 478 36,000  Level FlightAware ADS-B
05:34AM 51.7856 -2.2460 277° West 417 480 36,000  Level FlightAware ADS-B
05:35AM 51.7924 -2.3415 276° West 418 481 36,000  Level FlightAware ADS-B
05:35AM 51.7990 -2.4360 277° West 419 482 36,000  Level FlightAware ADS-B
05:36AM 51.8059 -2.5344 276° West 421 484 36,000  Level FlightAware ADS-B
05:36AM 51.8101 -2.5963 276° West 422 486 36,000  Level FlightAware ADS-B
05:37AM 51.8173 -2.7016 276° West 423 487 36,000  Level FlightAware ADS-B
05:37AM 51.8236 -2.7957 276° West 422 486 36,000  Level FlightAware ADS-B
05:38AM 51.8299 -2.8904 276° West 421 484 36,000  Level FlightAware ADS-B
05:38AM 51.8361 -2.9856 276° West 420 483 36,000  Level FlightAware ADS-B
05:39AM 51.8424 -3.0826 276° West 420 483 36,000  Level FlightAware ADS-B
05:40AM 51.8542 -3.2686 283° West 420 483 36,000  Level FlightAware ADS-B
05:47AM 52.1557 -4.6257 281° West  Level FlightAware Approximate
05:48AM 52.1950 -4.8097 281° West  Level FlightAware Approximate
05:49AM 52.2341 -4.9940 281° West  Level FlightAware Approximate
05:50AM 52.2729 -5.1786 280° West  Level FlightAware Approximate
05:51AM 52.3114 -5.3635 280° West  Level FlightAware Approximate
05:52AM 52.3496 -5.5488 280° West  Level FlightAware Approximate
05:53AM 52.3876 -5.7343 280° West  Level FlightAware Approximate
05:54AM 52.4252 -5.9202 279° West  Level FlightAware Approximate
05:55AM 52.4625 -6.1064 279° West  Level FlightAware Approximate
05:56AM 52.4996 -6.2930 279° West  Level FlightAware Approximate
05:57AM 52.5363 -6.4798 279° West  Level FlightAware Approximate
05:58AM 52.5728 -6.6669 278° West  Level FlightAware Approximate
05:59AM 52.6089 -6.8544 278° West  Level FlightAware Approximate
06:00AM 52.6448 -7.0422 278° West  Level FlightAware Approximate
06:01AM 52.6804 -7.2302 277° West  Level FlightAware Approximate
06:02AM 52.7156 -7.4186 277° West  Level FlightAware Approximate
06:03AM 52.7506 -7.6073 277° West  Level FlightAware Approximate
06:04AM 52.7853 -7.7963 277° West  Level FlightAware Approximate
06:05AM 52.8088 -7.9900 276° West  Level FlightAware Approximate
06:06AM 52.8319 -8.1840 276° West  Level FlightAware Approximate
06:07AM 52.8547 -8.3782 276° West  Level FlightAware Approximate
06:08AM 52.8772 -8.5726 276° West  Level FlightAware Approximate
06:09AM 52.8994 -8.7672 275° West  Level FlightAware Approximate
06:10AM 52.9213 -8.9619 275° West  Level FlightAware Approximate
06:11AM 52.9428 -9.1569 275° West  Level FlightAware Approximate
06:12AM 52.9641 -9.3521 275° West  Level FlightAware Approximate
06:13AM 52.9850 -9.5475 274° West  Level FlightAware Approximate
06:14AM 53.0056 -9.7430 274° West  Level FlightAware Approximate
06:15AM 53.0259 -9.9387 274° West  Level FlightAware Approximate
06:16AM 53.0458 -10.1347 274° West  Level FlightAware Approximate
06:17AM 53.0654 -10.3308 273° West  Level FlightAware Approximate
06:18AM 53.0848 -10.5270 273° West  Level FlightAware Approximate
06:19AM 53.1037 -10.7235 273° West  Level FlightAware Approximate
06:20AM 53.1224 -10.9201 272° West  Level FlightAware Approximate
06:21AM 53.1407 -11.1169 272° West  Level FlightAware Approximate
06:22AM 53.1587 -11.3138 272° West  Level FlightAware Approximate
06:23AM 53.1764 -11.5110 271° West  Level FlightAware Approximate
06:24AM 53.1938 -11.7082 271° West  Level FlightAware Approximate
06:25AM 53.2108 -11.9057 271° West  Level FlightAware Approximate
06:26AM 53.2275 -12.1033 270° West  Level FlightAware Approximate
06:27AM 53.2439 -12.3010 270° West  Level FlightAware Approximate
06:28AM 53.2600 -12.4989 270° West  Level FlightAware Approximate
06:29AM 53.2757 -12.6970 269° West  Level FlightAware Approximate
06:30AM 53.2911 -12.8952 269° West  Level FlightAware Approximate
06:31AM 53.3062 -13.0935 269° West  Level FlightAware Approximate
06:32AM 53.3209 -13.2920 268° West  Level FlightAware Approximate
06:33AM 53.3353 -13.4906 268° West  Level FlightAware Approximate
06:34AM 53.3494 -13.6893 267° West  Level FlightAware Approximate
06:35AM 53.3632 -13.8882 267° West  Level FlightAware Approximate
06:36AM 53.3766 -14.0871 266° West  Level FlightAware Approximate
06:37AM 53.3897 -14.2863 266° West  Level FlightAware Approximate
06:38AM 53.4024 -14.4855 265° West  Level FlightAware Approximate
06:39AM 53.4148 -14.6849 265° West  Level FlightAware Approximate
06:40AM 53.4240 -14.8848 264° West  Level FlightAware Approximate
06:41AM 53.4327 -15.0848 264° West  Level FlightAware Approximate
06:42AM 53.4412 -15.2848 263° West  Level FlightAware Approximate
06:43AM 53.4493 -15.4850 262° West  Level FlightAware Approximate
06:44AM 53.4571 -15.6852 262° West  Level FlightAware Approximate
06:45AM 53.4645 -15.8855 261° West  Level FlightAware Approximate
06:46AM 53.4716 -16.0859 260° West  Level FlightAware Approximate
06:47AM 53.4784 -16.2863 259° West  Level FlightAware Approximate
06:48AM 53.4848 -16.4868 258° West  Level FlightAware Approximate
06:49AM 53.4909 -16.6874 257° West  Level FlightAware Approximate
06:50AM 53.4967 -16.8880 256° West  Level FlightAware Approximate
06:51AM 53.5021 -17.0886 255° West  Level FlightAware Approximate
06:52AM 53.5072 -17.2893 254° West  Level FlightAware Approximate
06:53AM 53.5119 -17.4901 252° West  Level FlightAware Approximate
06:54AM 53.5163 -17.6909 250° West  Level FlightAware Approximate
06:55AM 53.5204 -17.8917 248° West  Level FlightAware Approximate
06:56AM 53.5242 -18.0926 246° West  Level FlightAware Approximate
06:57AM 53.5276 -18.2935 243° Southwest  Level FlightAware Approximate
06:58AM 53.5307 -18.4945 240° Southwest  Level FlightAware Approximate
06:59AM 53.5334 -18.6954 236° Southwest  Level FlightAware Approximate
07:00AM 53.5358 -18.8965 231° Southwest  Level FlightAware Approximate
07:01AM 53.0000 -20.0000 284° West 461 531 36,000  Level ETMS Enhanced Traffic Management System
07:01AM 53.5378 -19.0975 259° West  Level FlightAware Approximate
07:02AM 53.5396 -19.2985 257° West  Level FlightAware Approximate
07:03AM 53.5410 -19.4996 256° West  Level FlightAware Approximate
07:04AM 53.5420 -19.7006 254° West  Level FlightAware Approximate
07:05AM 53.5427 -19.9017 252° West  Level FlightAware Approximate
07:08AM 53.2159 -21.5684 282° West 461 531 36,000  Level FlightAware Transoceanic
07:09AM 53.2430 -21.7777 282° West 461 531 36,000  Level FlightAware Transoceanic
07:10AM 53.2697 -21.9874 282° West 461 531 36,000  Level FlightAware Transoceanic
07:11AM 53.2961 -22.1973 282° West 461 531 36,000  Level FlightAware Transoceanic
07:12AM 53.3221 -22.4074 282° West 461 531 36,000  Level FlightAware Transoceanic
07:13AM 53.3478 -22.6178 281° West 461 531 36,000  Level FlightAware Transoceanic
07:14AM 53.3730 -22.8284 281° West 461 531 36,000  Level FlightAware Transoceanic
07:15AM 53.3979 -23.0393 281° West 461 531 36,000  Level FlightAware Transoceanic
07:16AM 53.4224 -23.2505 281° West 461 531 36,000  Level FlightAware Transoceanic
07:17AM 53.4466 -23.4618 281° West 461 531 36,000  Level FlightAware Transoceanic
07:18AM 53.4703 -23.6735 281° West 461 531 36,000  Level FlightAware Transoceanic
07:19AM 53.4937 -23.8853 280° West 461 531 36,000  Level FlightAware Transoceanic
07:20AM 53.5168 -24.0974 280° West 461 531 36,000  Level FlightAware Transoceanic
07:21AM 53.5394 -24.3097 280° West 461 531 36,000  Level FlightAware Transoceanic
07:22AM 53.5617 -24.5222 280° West 461 531 36,000  Level FlightAware Transoceanic
07:23AM 53.5836 -24.7350 280° West 461 531 36,000  Level FlightAware Transoceanic
07:24AM 53.6051 -24.9480 280° West 461 531 36,000  Level FlightAware Transoceanic
07:25AM 53.6262 -25.1612 279° West 461 531 36,000  Level FlightAware Transoceanic
07:26AM 53.6470 -25.3746 279° West 461 531 36,000  Level FlightAware Transoceanic
07:27AM 53.6674 -25.5882 279° West 461 531 36,000  Level FlightAware Transoceanic
07:28AM 53.6874 -25.8020 279° West 461 531 36,000  Level FlightAware Transoceanic
07:29AM 53.7070 -26.0160 279° West 461 531 36,000  Level FlightAware Transoceanic
07:30AM 53.7262 -26.2303 279° West 461 531 36,000  Level FlightAware Transoceanic
07:31AM 53.7451 -26.4447 278° West 461 531 36,000  Level FlightAware Transoceanic
07:32AM 53.7635 -26.6593 278° West 461 531 36,000  Level FlightAware Transoceanic
07:33AM 53.7816 -26.8741 278° West 461 531 36,000  Level FlightAware Transoceanic
07:34AM 53.7993 -27.0890 278° West 461 531 36,000  Level FlightAware Transoceanic
07:35AM 53.8166 -27.3042 278° West 461 531 36,000  Level FlightAware Transoceanic
07:36AM 53.8336 -27.5195 278° West 461 531 36,000  Level FlightAware Transoceanic
07:37AM 53.8501 -27.7350 277° West 461 531 36,000  Level FlightAware Transoceanic
07:38AM 53.8663 -27.9507 277° West 461 531 36,000  Level FlightAware Transoceanic
07:39AM 53.8820 -28.1665 277° West 461 531 36,000  Level FlightAware Transoceanic
07:40AM 53.8974 -28.3825 277° West 461 531 36,000  Level FlightAware Transoceanic
07:41AM 53.9124 -28.5987 277° West 461 531 36,000  Level FlightAware Transoceanic
07:42AM 53.9270 -28.8150 276° West 461 531 36,000  Level FlightAware Transoceanic
07:43AM 53.9412 -29.0314 276° West 461 531 36,000  Level FlightAware Transoceanic
07:44AM 53.9551 -29.2480 276° West 461 531 36,000  Level FlightAware Transoceanic
07:45AM 53.9685 -29.4648 276° West 461 531 36,000  Level FlightAware Transoceanic
07:46AM 53.9816 -29.6817 276° West 461 531 36,000  Level FlightAware Transoceanic
07:47AM 53.9942 -29.8987 276° West 461 531 36,000  Level FlightAware Transoceanic
07:48AM 54.0042 -30.1016 276° West  Level FlightAware Approximate
07:49AM 54.0123 -30.3049 276° West  Level FlightAware Approximate
07:50AM 54.0200 -30.5082 276° West  Level FlightAware Approximate
07:51AM 54.0275 -30.7116 276° West  Level FlightAware Approximate
07:52AM 54.0345 -30.9151 276° West  Level FlightAware Approximate
07:53AM 54.0413 -31.1187 276° West  Level FlightAware Approximate
07:54AM 54.0477 -31.3223 275° West  Level FlightAware Approximate
07:55AM 54.0537 -31.5259 275° West  Level FlightAware Approximate
07:56AM 54.0594 -31.7297 275° West  Level FlightAware Approximate
07:57AM 54.0648 -31.9335 275° West  Level FlightAware Approximate
07:58AM 54.0698 -32.1373 275° West  Level FlightAware Approximate
07:59AM 54.0745 -32.3412 275° West  Level FlightAware Approximate
08:00AM 54.0788 -32.5451 275° West  Level FlightAware Approximate
08:01AM 54.0828 -32.7491 274° West  Level FlightAware Approximate
08:02AM 54.0864 -32.9531 274° West  Level FlightAware Approximate
08:03AM 54.0897 -33.1571 274° West  Level FlightAware Approximate
08:04AM 54.0927 -33.3612 274° West  Level FlightAware Approximate
08:05AM 54.0953 -33.5653 274° West  Level FlightAware Approximate
08:06AM 54.0975 -33.7694 274° West  Level FlightAware Approximate
08:07AM 54.0994 -33.9736 274° West  Level FlightAware Approximate
08:08AM 54.1010 -34.1777 274° West  Level FlightAware Approximate
08:09AM 54.1006 -34.3819 273° West  Level FlightAware Approximate
08:10AM 54.1123 -34.5851 273° West  Level FlightAware Approximate
08:11AM 54.1237 -34.7884 273° West  Level FlightAware Approximate
08:12AM 54.1348 -34.9919 273° West  Level FlightAware Approximate
08:13AM 54.1455 -35.1954 273° West  Level FlightAware Approximate
08:14AM 54.1558 -35.3991 272° West  Level FlightAware Approximate
08:15AM 54.1659 -35.6028 272° West  Level FlightAware Approximate
08:16AM 54.1755 -35.8067 272° West  Level FlightAware Approximate
08:17AM 54.1849 -36.0106 272° West  Level FlightAware Approximate
08:18AM 54.1939 -36.2147 272° West  Level FlightAware Approximate
08:19AM 54.2025 -36.4188 271° West  Level FlightAware Approximate
08:20AM 54.2108 -36.6230 271° West  Level FlightAware Approximate
08:21AM 54.2188 -36.8273 271° West  Level FlightAware Approximate
08:22AM 54.2264 -37.0317 271° West  Level FlightAware Approximate
08:23AM 54.2337 -37.2361 271° West  Level FlightAware Approximate
08:24AM 54.2406 -37.4406 270° West  Level FlightAware Approximate
08:25AM 54.2472 -37.6452 270° West  Level FlightAware Approximate
08:26AM 54.2534 -37.8498 270° West  Level FlightAware Approximate
08:27AM 54.2593 -38.0545 270° West  Level FlightAware Approximate
08:28AM 54.2648 -38.2593 270° West  Level FlightAware Approximate
08:29AM 54.2700 -38.4641 269° West  Level FlightAware Approximate
08:30AM 54.2748 -38.6690 269° West  Level FlightAware Approximate
08:31AM 54.2793 -38.8739 269° West  Level FlightAware Approximate
08:32AM 54.2835 -39.0788 269° West  Level FlightAware Approximate
08:33AM 54.2873 -39.2838 269° West  Level FlightAware Approximate
08:34AM 54.2907 -39.4888 268° West  Level FlightAware Approximate
08:35AM 54.2938 -39.6939 268° West  Level FlightAware Approximate
08:36AM 54.2840 -39.8983 268° West  Level FlightAware Approximate
08:37AM 54.2737 -40.1026 268° West  Level FlightAware Approximate
08:38AM 54.2632 -40.3068 268° West  Level FlightAware Approximate
08:39AM 54.2523 -40.5109 268° West  Level FlightAware Approximate
08:40AM 54.2411 -40.7149 268° West  Level FlightAware Approximate
08:41AM 54.2295 -40.9188 267° West  Level FlightAware Approximate
08:42AM 54.2175 -41.1226 267° West  Level FlightAware Approximate
08:43AM 54.2053 -41.3262 267° West  Level FlightAware Approximate
08:44AM 54.1926 -41.5298 267° West  Level FlightAware Approximate
08:45AM 54.1797 -41.7332 267° West  Level FlightAware Approximate
08:46AM 54.1664 -41.9364 267° West  Level FlightAware Approximate
08:47AM 54.1527 -42.1396 267° West  Level FlightAware Approximate
08:48AM 54.1387 -42.3426 267° West  Level FlightAware Approximate
08:49AM 54.1244 -42.5454 267° West  Level FlightAware Approximate
08:50AM 54.1097 -42.7481 267° West  Level FlightAware Approximate
08:51AM 54.0947 -42.9507 266° West  Level FlightAware Approximate
08:52AM 54.0794 -43.1532 266° West  Level FlightAware Approximate
08:53AM 54.0637 -43.3554 266° West  Level FlightAware Approximate
08:54AM 54.0477 -43.5576 266° West  Level FlightAware Approximate
08:55AM 54.0313 -43.7595 266° West  Level FlightAware Approximate
08:56AM 54.0146 -43.9613 266° West  Level FlightAware Approximate
08:57AM 53.9976 -44.1630 266° West  Level FlightAware Approximate
08:58AM 53.9802 -44.3644 266° West  Level FlightAware Approximate
08:59AM 53.9625 -44.5657 266° West  Level FlightAware Approximate
09:00AM 53.9444 -44.7669 266° West  Level FlightAware Approximate
09:01AM 53.9260 -44.9678 266° West  Level FlightAware Approximate
09:02AM 53.9073 -45.1686 266° West  Level FlightAware Approximate
09:03AM 53.8882 -45.3692 266° West  Level FlightAware Approximate
09:04AM 53.8689 -45.5696 266° West  Level FlightAware Approximate
09:05AM 53.8491 -45.7698 266° West  Level FlightAware Approximate
09:06AM 53.8291 -45.9698 266° West  Level FlightAware Approximate
09:07AM 53.8087 -46.1697 266° West  Level FlightAware Approximate
09:08AM 53.7880 -46.3693 266° West  Level FlightAware Approximate
09:09AM 53.7669 -46.5688 266° West  Level FlightAware Approximate
09:10AM 53.7455 -46.7680 266° West  Level FlightAware Approximate
09:11AM 53.7238 -46.9671 266° West  Level FlightAware Approximate
09:12AM 53.7018 -47.1659 266° West  Level FlightAware Approximate
09:13AM 53.6794 -47.3645 266° West  Level FlightAware Approximate
09:14AM 53.6567 -47.5629 266° West  Level FlightAware Approximate
09:15AM 53.6337 -47.7611 266° West  Level FlightAware Approximate
09:16AM 53.6103 -47.9591 266° West  Level FlightAware Approximate
09:17AM 53.5866 -48.1568 266° West  Level FlightAware Approximate
09:18AM 53.5626 -48.3544 266° West  Level FlightAware Approximate
09:19AM 53.5383 -48.5517 267° West  Level FlightAware Approximate
09:20AM 53.5136 -48.7488 267° West  Level FlightAware Approximate
09:21AM 53.4887 -48.9456 267° West  Level FlightAware Approximate
09:22AM 53.4634 -49.1422 267° West  Level FlightAware Approximate
09:23AM 53.4237 -49.3319 268° West  Level FlightAware Approximate
09:24AM 53.3837 -49.5212 269° West  Level FlightAware Approximate
09:25AM 53.2833 -53.1333 246° West 480 552 38,000  Level Gander Center
09:30AM 53.0000 -54.1833 239° Southwest 480 552 38,000  Level Gander Center
09:31AM 52.9333 -54.3667 224° Southwest 490 564 38,000  Level Gander Center
09:32AM 52.8167 -54.5500 239° Southwest 490 564 38,000  Level Gander Center
09:33AM 52.7500 -54.7333 228° Southwest 490 564 38,000  Level Gander Center
09:34AM 52.6500 -54.9167 237° Southwest 490 564 38,000  Level Gander Center
09:35AM 52.5833 -55.0833 233° Southwest 490 564 38,000  Level Gander Center
09:36AM 52.5000 -55.2667 226° Southwest 490 564 38,000  Level Gander Center
09:37AM 52.4000 -55.4333 228° Southwest 490 564 38,000  Level Gander Center
09:38AM 52.3167 -55.5833 233° Southwest 480 552 38,000  Level Gander Center
09:39AM 52.2333 -55.7667 226° Southwest 490 564 38,000  Level Gander Center
09:40AM 52.1333 -55.9333 234° Southwest 490 564 38,000  Level Gander Center
09:41AM 52.0500 -56.1167 231° Southwest 490 564 38,000  Level Gander Center
09:42AM 51.9667 -56.2833 234° Southwest 490 564 38,000  Level Gander Center
09:43AM 51.9000 -56.4333 226° Southwest 480 552 38,000  Level Gander Center
09:44AM 51.8000 -56.6000 226° Southwest 480 552 38,000  Level Gander Center
09:45AM 51.7000 -56.7667 234° Southwest 480 552 38,000  Level Gander Center
09:46AM 51.6167 -56.9500 225° Southwest 480 552 38,000  Level Gander Center
09:47AM 51.5333 -57.0833 231° Southwest 480 552 38,000  Level Gander Center
09:48AM 51.4500 -57.2500 231° Southwest 470 541 38,000  Level Gander Center
09:49AM 51.3667 -57.4167 228° Southwest 490 564 38,000  Level Gander Center
09:50AM 51.2833 -57.5667 231° Southwest 480 552 38,000  Level Gander Center
09:51AM 51.1833 -57.7667 220° Southwest 490 564 38,000  Level Gander Center
09:52AM 51.0833 -57.9000 238° Southwest 470 541 38,000  Level Gander Center
09:53AM 51.0167 -58.0667 220° Southwest 490 564 38,000  Level Gander Center
09:54AM 50.9167 -58.2000 227° Southwest 480 552 38,000  Level Gander Center
09:55AM 50.8167 -58.3667 232° Southwest 480 552 38,000  Level Gander Center
09:56AM 50.7333 -58.5333 232° Southwest 470 541 38,000  Level Gander Center
09:57AM 50.6500 -58.7000 225° Southwest 470 541 38,000  Level Gander Center
09:58AM 50.5667 -58.8333 232° Southwest 470 541 38,000  Level Gander Center
09:59AM 50.5000 -58.9667 220° Southwest 460 529 38,000  Level Gander Center
10:00AM 50.4000 -59.1000 226° Southwest 470 541 38,000  Level Gander Center
10:01AM 50.3167 -59.2333 232° Southwest 460 529 38,000  Level Gander Center
10:02AM 50.2333 -59.4000 227° Southwest 470 541 38,000  Level Gander Center
10:03AM 50.1333 -59.5667 227° Southwest 470 541 38,000  Level Gander Center
10:03AM 50.0833 -59.6500 226° Southwest 470 541 38,000  Level Moncton Center
10:04AM 50.0000 -59.7833 232° Southwest 470 541 38,000  Level Moncton Center
10:05AM 49.9167 -59.9500 226° Southwest 470 541 38,000  Level Moncton Center
10:06AM 49.8333 -60.0833 224° Southwest 460 529 38,000  Level Moncton Center
10:07AM 49.7333 -60.2333 224° Southwest 470 541 38,000  Level Moncton Center
10:08AM 49.6333 -60.3833 232° Southwest 460 529 38,000  Level Moncton Center
10:09AM 49.5667 -60.5167 224° Southwest 470 541 38,000  Level Moncton Center
10:10AM 49.4667 -60.6667 224° Southwest 470 541 38,000  Level Moncton Center
10:11AM 49.3667 -60.8167 221° Southwest 480 552 38,000  Level Moncton Center
10:12AM 49.2667 -60.9500 239° Southwest 480 552 38,000  Level Moncton Center
10:13AM 49.2000 -61.1167 221° Southwest 480 552 38,000  Level Moncton Center
10:14AM 49.1000 -61.2500 226° Southwest 460 529 38,000  Level Moncton Center
10:15AM 49.0167 -61.3833 221° Southwest 460 529 38,000  Level Moncton Center
10:16AM 48.9167 -61.5167 227° Southwest 460 529 38,000  Level Moncton Center
10:17AM 48.8333 -61.6500 236° Southwest 450 518 38,000  Level Moncton Center
10:18AM 48.7667 -61.8000 217° Southwest 450 518 38,000  Level Moncton Center
10:19AM 48.6500 -61.9333 227° Southwest 460 529 38,000  Level Moncton Center
10:20AM 48.5667 -62.0667 227° Southwest 440 506 38,000  Level Moncton Center
10:21AM 48.4833 -62.2000 225° Southwest 450 518 38,000  Level Moncton Center
10:22AM 48.3833 -62.3500 227° Southwest 440 506 38,000  Level Moncton Center
10:23AM 48.3000 -62.4833 227° Southwest 440 506 38,000  Level Moncton Center
10:24AM 48.2167 -62.6167 222° Southwest 440 506 38,000  Level Moncton Center
10:25AM 48.1167 -62.7500 223° Southwest 440 506 38,000  Level Moncton Center
10:26AM 48.0333 -62.8667 233° Southwest 450 518 38,000  Level Moncton Center
10:27AM 47.9667 -63.0000 218° Southwest 450 518 38,000  Level Moncton Center
10:28AM 47.8667 -63.1167 227° Southwest 450 518 38,000  Level Moncton Center
10:29AM 47.7833 -63.2500 227° Southwest 450 518 38,000  Level Moncton Center
10:30AM 47.7000 -63.3833 225° Southwest 440 506 38,000  Level Moncton Center
10:31AM 47.6000 -63.5333 223° Southwest 440 506 38,000  Level Moncton Center
10:32AM 47.5167 -63.6500 222° Southwest 440 506 38,000  Level Moncton Center
10:33AM 47.4167 -63.7833 224° Southwest 440 506 38,000  Level Moncton Center
10:34AM 47.3333 -63.9000 227° Southwest 440 506 38,000  Level Moncton Center
10:35AM 47.2500 -64.0333 224° Southwest 440 506 38,000  Level Moncton Center
10:36AM 47.1667 -64.1500 218° Southwest 440 506 38,000  Level Moncton Center
10:37AM 47.0667 -64.2667 228° Southwest 440 506 38,000  Level Moncton Center
10:38AM 46.9833 -64.4000 224° Southwest 440 506 38,000  Level Moncton Center
10:39AM 46.9000 -64.5167 219° Southwest 440 506 38,000  Level Moncton Center
10:40AM 46.8000 -64.6333 228° Southwest 430 495 38,000  Level Moncton Center
10:41AM 46.7167 -64.7667 224° Southwest 430 495 38,000  Level Moncton Center
10:42AM 46.6333 -64.8833 224° Southwest 430 495 38,000  Level Moncton Center
10:43AM 46.5500 -65.0000 228° Southwest 420 483 38,000  Level Moncton Center
10:44AM 46.4667 -65.1333 210° Southwest 420 483 38,000  Level Moncton Center
10:45AM 46.3667 -65.2167 224° Southwest 410 472 38,000  Level Moncton Center
10:46AM 46.2833 -65.3333 220° Southwest 410 472 38,000  Level Moncton Center
10:47AM 46.2000 -65.4333 224° Southwest 400 460 38,000  Level Moncton Center
10:48AM 46.1167 -65.5500 224° Southwest 400 460 38,000  Level Moncton Center
10:49AM 46.0333 -65.6667 226° Southwest 410 472 38,000  Level Moncton Center
10:50AM 45.9667 -65.7667 224° Southwest 410 472 38,000  Level Moncton Center
10:51AM 45.8833 -65.8833 224° Southwest 400 460 38,000  Level Moncton Center
10:52AM 45.8000 -66.0000 220° Southwest 410 472 38,000  Level Moncton Center
10:53AM 45.7167 -66.1000 224° Southwest 400 460 38,000  Level Moncton Center
10:54AM 45.6333 -66.2167 219° Southwest 410 472 38,000  Level Moncton Center
10:55AM 45.5333 -66.3333 215° Southwest 400 460 38,000  Level Moncton Center
10:56AM 45.4500 -66.4167 231° Southwest 400 460 38,000  Level Moncton Center
10:57AM 45.3833 -66.5333 220° Southwest 400 460 38,000  Level Moncton Center
10:58AM 45.3000 -66.6333 225° Southwest 400 460 38,000  Level Moncton Center
10:59AM 45.2167 -66.7500 215° Southwest 400 460 38,000  Level Moncton Center
11:00AM 45.1333 -66.8333 225° Southwest 400 460 38,000  Level Moncton Center
11:01AM 45.0500 -66.9500 220° Southwest 400 460 38,000  Level Moncton Center
11:02AM 44.9500 -67.0667 231° Southwest 400 460 38,000  Level Moncton Center
11:03AM 44.8931 -67.1675 227° Southwest 411 473 38,000  Level Boston Center
11:04AM 44.8189 -67.2794 226° Southwest 406 467 38,000  Level Boston Center
11:05AM 44.7406 -67.3917 226° Southwest 401 461 38,000  Level Boston Center
11:06AM 44.6542 -67.5161 219° Southwest 401 461 38,000  Level Boston Center
11:07AM 44.5667 -67.6167 225° Southwest 400 460 38,000  Level Moncton Center
11:08AM 44.4833 -67.7333 222° Southwest 400 460 38,000  Level Moncton Center
11:09AM 44.4167 -67.8167 225° Southwest 400 460 38,000  Level Moncton Center
11:10AM 44.3333 -67.9333 229° Southwest 400 460 38,000  Level Moncton Center
11:11AM 44.2531 -68.0628 225° Southwest 409 471 38,000  Level Boston Center
11:12AM 44.1739 -68.1728 225° Southwest 409 471 38,000  Level Boston Center
11:13AM 44.0944 -68.2825 224° Southwest 409 471 38,000  Level Boston Center
11:14AM 44.0128 -68.3922 224° Southwest 409 471 38,000  Level Boston Center
11:15AM 43.9331 -68.4986 226° Southwest 409 471 38,000  Level Boston Center
11:16AM 43.8656 -68.5953 224° Southwest 409 471 38,000  Level Boston Center
11:17AM 43.7836 -68.7042 224° Southwest 409 471 38,000  Level Boston Center
11:18AM 43.7036 -68.8094 224° Southwest 409 471 38,000  Level Boston Center
11:19AM 43.6236 -68.9178 224° Southwest 409 471 38,000  Level Boston Center
11:20AM 43.5356 -69.0344 224° Southwest 409 471 38,000  Level Boston Center
11:21AM 43.4553 -69.1419 223° Southwest 409 471 38,000  Level Boston Center
11:22AM 43.3769 -69.2433 223° Southwest 409 471 38,000  Level Boston Center
11:23AM 43.2922 -69.3533 223° Southwest 409 471 38,000  Level Boston Center
11:24AM 43.2197 -69.4456 224° Southwest 409 471 38,000  Level Boston Center
11:25AM 43.1392 -69.5519 224° Southwest 409 471 38,000  Level Boston Center
11:26AM 43.0583 -69.6581 225° Southwest 409 471 38,000  Level Boston Center
11:27AM 42.9797 -69.7639 224° Southwest 409 471 38,000  Level Boston Center
11:28AM 42.8986 -69.8694 224° Southwest 409 471 38,000  Level Boston Center
11:29AM 42.8197 -69.9744 224° Southwest 409 471 38,000  Level Boston Center
11:30AM 42.7428 -70.0767 221° Southwest 404 465 38,000  Level Boston Center
11:31AM 42.6572 -70.1786 223° Southwest 404 465 38,000  Level Boston Center
11:32AM 42.5778 -70.2803 224° Southwest 404 465 38,000  Level Boston Center
11:33AM 42.5025 -70.3786 222° Southwest 404 465 38,000  Level Boston Center
11:34AM 42.4231 -70.4769 223° Southwest 398 458 38,000  Level Boston Center
11:35AM 42.3456 -70.5750 222° Southwest 393 452 38,000  Level Boston Center
11:36AM 42.2636 -70.6756 222° Southwest 393 452 38,000  Level Boston Center
11:37AM 42.1839 -70.7731 225° Southwest 393 452 38,000  Level Boston Center
11:38AM 42.1083 -70.8758 223° Southwest 393 452 38,000  Level Boston Center
11:39AM 42.0283 -70.9756 221° Southwest 393 452 38,000  Level Boston Center
11:40AM 41.9481 -71.0694 223° Southwest 393 452 38,000  Level Boston Center
11:41AM 41.8700 -71.1661 223° Southwest 393 452 38,000  Level Boston Center
11:42AM 41.7900 -71.2650 223° Southwest 393 452 38,000  Level Boston Center
11:43AM 41.7097 -71.3639 222° Southwest 393 452 38,000  Level Boston Center
11:44AM 41.6292 -71.4625 222° Southwest 393 452 38,000  Level Boston Center
11:45AM 41.5486 -71.5581 220° Southwest 393 452 38,000  Level Boston Center
11:46AM 41.4661 -71.6506 223° Southwest 393 452 38,000  Level Boston Center
11:47AM 41.3772 -71.7594 222° Southwest 393 452 38,000  Level Boston Center
11:48AM 41.2944 -71.8572 222° Southwest 393 452 38,000  Level Boston Center
11:50AM 41.1332 -72.0513 222° Southwest 398 458 38,000  Level FlightAware ADS-B
11:51AM 41.0879 -72.1050 222° Southwest 396 456 38,000  Level FlightAware ADS-B
11:51AM 41.0411 -72.1603 222° Southwest 395 455 38,000  Level FlightAware ADS-B
11:52AM 41.0007 -72.2077 222° Southwest 394 453 38,000  Level FlightAware ADS-B
11:52AM 40.9572 -72.2588 222° Southwest 393 452 38,000  Level FlightAware ADS-B
11:53AM 40.9126 -72.3111 221° Southwest 394 453 38,000  Level FlightAware ADS-B
11:53AM 40.8713 -72.3593 221° Southwest 393 452 38,000  Level FlightAware ADS-B
11:54AM 40.8285 -72.4093 221° Southwest 392 451 38,000  Level FlightAware ADS-B
11:54AM 40.7879 -72.4567 221° Southwest 390 449 38,000  Level FlightAware ADS-B
11:55AM 40.7407 -72.5115 221° Southwest 388 447 38,000  Level FlightAware ADS-B
11:56AM 40.6990 -72.5599 221° Southwest 389 448 38,000  Level FlightAware ADS-B
11:56AM 40.6584 -72.6071 221° Southwest 391 450 38,000  Level FlightAware ADS-B
11:57AM 40.6142 -72.6582 221° Southwest 395 455 38,000  Level FlightAware ADS-B
11:57AM 40.5706 -72.7086 221° Southwest 395 455 38,000  Level FlightAware ADS-B
11:58AM 40.4987 -72.7915 221° Southwest 398 458 38,000  Level FlightAware ADS-B
11:59AM 40.4568 -72.8396 221° Southwest 398 458 38,000  Level FlightAware ADS-B
11:59AM 40.4135 -72.8893 221° Southwest 397 457 38,000  Level FlightAware ADS-B
12:00PM 40.3650 -72.9449 221° Southwest 395 455 38,000  Level FlightAware ADS-B
12:00PM 40.3153 -73.0017 221° Southwest 393 452 38,000  Level FlightAware ADS-B
12:01PM 40.2738 -73.0491 221° Southwest 393 452 38,000  Level FlightAware ADS-B
12:01PM 40.2319 -73.0968 221° Southwest 395 455 38,000  Level FlightAware ADS-B
12:02PM 40.1899 -73.1445 221° Southwest 396 456 38,000  Level FlightAware ADS-B
12:02PM 40.1465 -73.1938 221° Southwest 398 458 38,000  Level FlightAware ADS-B
12:03PM 40.1024 -73.2437 221° Southwest 398 458 38,000  Level FlightAware ADS-B
12:03PM 40.0597 -73.2920 221° Southwest 395 455 38,000  Level FlightAware ADS-B
12:04PM 40.0079 -73.3506 221° Southwest 397 457 38,000  Level FlightAware ADS-B
12:04PM 39.9646 -73.3993 221° Southwest 398 458 38,000  Level FlightAware ADS-B
12:05PM 39.9202 -73.4492 221° Southwest 400 460 38,000  Level FlightAware ADS-B
12:06PM 39.8725 -73.5029 221° Southwest 400 460 38,000  Level FlightAware ADS-B
12:06PM 39.8223 -73.5591 221° Southwest 400 460 38,000  Level FlightAware ADS-B
12:07PM 39.7779 -73.6088 221° Southwest 399 459 38,000  Level FlightAware ADS-B
12:07PM 39.7302 -73.6620 221° Southwest 399 459 38,000  Level FlightAware ADS-B
12:08PM 39.7034 -73.6919 221° Southwest 399 459 38,000  Level FlightAware ADS-B
12:08PM 39.6755 -73.7230 221° Southwest 396 456 38,000  Level FlightAware ADS-B
12:08PM 39.6333 -73.7699 221° Southwest 396 456 38,000  Level FlightAware ADS-B
12:09PM 39.5827 -73.8260 34° Northeast 396 456 38,000  Level FlightAware ADS-B
12:09PM 39.5961 -73.8142 219° Southwest 402 463 38,000  Level Washington Center
12:10PM 39.5410 -73.8723 220° Southwest 395 455 38,000  Level FlightAware ADS-B
12:10PM 39.5199 -73.8956 222° Southwest 396 456 38,000  Level FlightAware ADS-B
12:10PM 39.5119 -73.9050 220° Southwest 402 463 38,000  Level Washington Center
12:10PM 39.4774 -73.9426 220° Southwest 395 455 38,000  Level FlightAware ADS-B
12:11PM 39.4331 -73.9915 240° Southwest 394 453 38,000  Level FlightAware ADS-B
12:11PM 39.4300 -73.9983 218° Southwest 396 456 38,000  Level Washington Center
12:11PM 39.3916 -74.0372 220° Southwest 392 451 38,000  Level FlightAware ADS-B
12:12PM 39.3646 -74.0669 218° Southwest 392 451 38,000  Level FlightAware ADS-B
12:12PM 39.3456 -74.0861 224° Southwest 396 456 38,000  Level Washington Center
12:12PM 39.3343 -74.1002 220° Southwest 391 450 38,000  Level FlightAware ADS-B
12:12PM 39.3109 -74.1259 220° Southwest 390 449 38,000  Level FlightAware ADS-B
12:13PM 39.2927 -74.1458 221° Southwest 389 448 38,000  Level FlightAware ADS-B
12:13PM 39.2633 -74.1789 45° Northeast 401 461 38,000  Level Washington Center
12:13PM 39.2679 -74.1730 220° Southwest 388 447 38,000  Level FlightAware ADS-B
12:14PM 39.1811 -74.2661 39° Northeast 395 455 38,000  Level Washington Center
12:14PM 39.2405 -74.2030 220° Southwest 388 447 38,000  Level FlightAware ADS-B
12:15PM 39.1795 -74.2696 220° Southwest 389 448 38,000  Level FlightAware ADS-B
12:15PM 39.1256 -74.3284 221° Southwest 391 450 38,000  Level FlightAware ADS-B
12:15PM 39.0986 -74.3586 220° Southwest 395 455 38,000  Level Washington Center
12:16PM 39.0496 -74.4110 223° Southwest 392 451 38,000  Level FlightAware ADS-B
12:16PM 39.0161 -74.4508 179° South 400 460 38,000  Level Washington Center
12:16PM 39.0130 -74.4508 220° Southwest 393 452 38,000  Level FlightAware ADS-B
12:17PM 38.9314 -74.5403 41° Northeast 400 460 38,000  Level Washington Center
12:17PM 38.9539 -74.5147 220° Southwest 394 453 38,000  Level FlightAware ADS-B
12:18PM 38.9397 -74.5302 220° Southwest 394 453 38,000  Level FlightAware ADS-B
12:18PM 38.9186 -74.5529 220° Southwest 394 453 38,000  Level FlightAware ADS-B
12:18PM 38.8467 -74.6294 40° Northeast 400 460 38,000  Level Washington Center
12:19PM 38.9078 -74.5645 220° Southwest 394 453 38,000  Level FlightAware ADS-B
12:19PM 38.7661 -74.7183 40° Northeast 400 460 38,000  Level Washington Center
12:19PM 38.8876 -74.5861 220° Southwest 393 452 38,000  Level FlightAware ADS-B
12:20PM 38.8737 -74.6010 220° Southwest 393 452 38,000  Level FlightAware ADS-B
12:20PM 38.6814 -74.8097 40° Northeast 400 460 38,000  Level Washington Center
12:20PM 38.8590 -74.6167 220° Southwest 393 452 38,000  Level FlightAware ADS-B
12:21PM 38.8416 -74.6354 220° Southwest 393 452 38,000  Level FlightAware ADS-B
12:21PM 38.5964 -74.8983 40° Northeast 400 460 38,000  Level Washington Center
12:22PM 38.8144 -74.6644 220° Southwest 392 451 38,000  Level FlightAware ADS-B
12:22PM 38.7991 -74.6808 220° Southwest 393 452 38,000  Level FlightAware ADS-B
12:23PM 38.7605 -74.7220 220° Southwest 393 452 38,000  Level FlightAware ADS-B
12:23PM 38.7315 -74.7528 220° Southwest 393 452 38,000  Level FlightAware ADS-B
12:24PM 38.7080 -74.7780 220° Southwest 394 453 38,000  Level FlightAware ADS-B
12:24PM 38.6807 -74.8070 220° Southwest 395 455 38,000  Level FlightAware ADS-B
12:25PM 38.6060 -74.8864 220° Southwest 396 456 38,000  Level FlightAware ADS-B
12:25PM 38.5719 -74.9227 220° Southwest 396 456 38,000  Level FlightAware ADS-B
12:25PM 38.5246 -74.9728 220° Southwest 398 458 38,000  Level FlightAware ADS-B
12:26PM 38.4695 -75.0311 213° Southwest 400 460 38,000  Level FlightAware ADS-B
12:26PM 38.4251 -75.0684 210° Southwest 401 461 38,000  Level FlightAware ADS-B
12:26PM 38.4041 -75.0836 210° Southwest 402 463 38,000  Level FlightAware ADS-B
12:26PM 38.2964 -75.1621 210° Southwest 405 466 38,000  Level FlightAware ADS-B
12:27PM 38.0679 -75.3283 210° Southwest 407 468 38,000  Level FlightAware ADS-B
12:27PM 38.0183 -75.3642 210° Southwest 405 466 38,000  Level FlightAware ADS-B
12:28PM 37.9688 -75.4000 210° Southwest 407 468 38,000  Level FlightAware ADS-B
12:28PM 37.9199 -75.4354 210° Southwest 408 470 38,000  Level FlightAware ADS-B
12:29PM 37.8536 -75.4831 210° Southwest 408 470 38,000  Level FlightAware ADS-B
12:29PM 37.7959 -75.5246 210° Southwest 408 470 38,000  Level FlightAware ADS-B
12:30PM 37.7459 -75.5605 210° Southwest 403 464 38,000  Level FlightAware ADS-B
12:30PM 37.6924 -75.5988 210° Southwest 402 463 38,000  Level FlightAware ADS-B
12:31PM 37.6404 -75.6361 209° Southwest 402 463 38,000  Level FlightAware ADS-B
12:31PM 37.5921 -75.6705 213° Southwest 401 461 38,000  Level FlightAware ADS-B
12:32PM 37.5475 -75.7069 209° Southwest 401 461 38,000  Level Washington Center
12:33PM 37.4492 -75.7750 209° Southwest 401 461 38,000  Level Washington Center
12:35PM 37.2566 -75.9087 209° Southwest 403 464 38,000  Level FlightAware ADS-B
12:35PM 37.2069 -75.9438 209° Southwest 404 465 38,000  Level FlightAware ADS-B
12:36PM 37.1572 -75.9788 209° Southwest 404 465 38,000  Level FlightAware ADS-B
12:36PM 37.1060 -76.0148 209° Southwest 405 466 38,000  Level FlightAware ADS-B
12:37PM 37.0540 -76.0513 209° Southwest 406 467 38,000  Level FlightAware ADS-B
12:37PM 36.9979 -76.0907 209° Southwest 405 466 38,000  Level FlightAware ADS-B
12:38PM 36.9464 -76.1268 209° Southwest 405 466 38,000  Level FlightAware ADS-B
12:39PM 36.8912 -76.1653 209° Southwest 403 464 38,000  Level FlightAware ADS-B
12:39PM 36.8410 -76.2004 209° Southwest 403 464 38,000  Level FlightAware ADS-B
12:40PM 36.7919 -76.2345 209° Southwest 401 461 38,000  Level FlightAware ADS-B
12:41PM 36.6839 -76.3097 210° Southwest 401 461 38,000  Level FlightAware ADS-B
12:42PM 36.5622 -76.3961 209° Southwest 406 467 38,000  Level Washington Center
12:43PM 36.4636 -76.4650 210° Southwest 401 461 38,000  Level Washington Center
12:44PM 36.3672 -76.5336 208° Southwest 401 461 38,000  Level Washington Center
12:45PM 36.2708 -76.5967 209° Southwest 401 461 38,000  Level Washington Center
12:46PM 36.1742 -76.6625 209° Southwest 401 461 38,000  Level Washington Center
12:47PM 36.0797 -76.7281 208° Southwest 401 461 38,000  Level Washington Center
12:48PM 35.9789 -76.7933 209° Southwest 401 461 38,000  Level Washington Center
12:49PM 35.8822 -76.8583 197° South 401 461 38,000  Level Washington Center
12:50PM 35.7733 -76.9003 199° South 396 456 38,000  Level Washington Center
12:51PM 35.6686 -76.9444 198° South 401 461 38,000  Level Washington Center
12:52PM 35.5617 -76.9861 198° South 401 461 38,000  Level Washington Center
12:53PM 35.4569 -77.0278 199° South 401 461 38,000  Level Washington Center
12:54PM 35.3497 -77.0742 198° South 406 467 38,000  Level Washington Center
12:55PM 35.2514 -77.1131 200° South 411 473 38,000  Level Washington Center
12:56PM 35.1483 -77.1594 198° South 411 473 38,000  Level Washington Center
12:57PM 35.0353 -77.2053 197° South 416 479 38,000  Level Washington Center
12:58PM 34.9283 -77.2464 202° Southwest 410 472 38,000  Level Washington Center
12:59PM 34.8128 -77.3022 197° South 410 472 38,000  Level Washington Center
01:00PM 34.7036 -77.3428 200° South 410 472 38,000  Level Washington Center
01:01PM 34.5986 -77.3886 198° South 410 472 38,000  Level Washington Center
01:02PM 34.4894 -77.4314 198° South 410 472 38,000  Level Washington Center
01:03PM 34.3822 -77.4744 197° South 410 472 38,000  Level Washington Center
01:04PM 34.2753 -77.5147 199° South 410 472 38,000  Level Washington Center
01:05PM 34.1661 -77.5597 192° South 410 472 38,000  Level Washington Center
01:06PM 34.1144 -77.5731 199° South 409 471 38,000  Level Jacksonville Center
01:07PM 34.0036 -77.6197 197° South 403 464 38,000  Level Jacksonville Center
01:08PM 33.8825 -77.6644 199° South 408 470 38,000  Level Jacksonville Center
01:09PM 33.7736 -77.7086 198° South 419 482 38,000  Level Jacksonville Center
01:10PM 33.6628 -77.7525 200° South 422 486 38,000  Level Jacksonville Center
01:11PM 33.5603 -77.7983 199° South 422 486 38,000  Level Jacksonville Center
01:12PM 33.4536 -77.8417 198° South 422 486 38,000  Level Jacksonville Center
01:13PM 33.3428 -77.8853 198° South 422 486 38,000  Level Jacksonville Center
01:14PM 33.2339 -77.9286 198° South 422 486 38,000  Level Jacksonville Center
01:15PM 33.1228 -77.9719 198° South 417 480 38,000  Level Jacksonville Center
01:16PM 33.0097 -78.0153 198° South 417 480 38,000  Level Jacksonville Center
01:17PM 32.9008 -78.0583 198° South 417 480 38,000  Level Jacksonville Center
01:18PM 32.7875 -78.1017 199° South 417 480 38,000  Level Jacksonville Center
01:19PM 32.6808 -78.1442 198° South 417 480 38,000  Level Jacksonville Center
01:20PM 32.5697 -78.1869 198° South 417 480 38,000  Level Jacksonville Center
01:21PM 32.4586 -78.2297 197° South 417 480 38,000  Level Jacksonville Center
01:22PM 32.3389 -78.2728 199° South 417 480 38,000  Level Jacksonville Center
01:23PM 32.2342 -78.3147 198° South 411 473 38,000  Level Jacksonville Center
01:24PM 32.1228 -78.3572 198° South 411 473 38,000  Level Jacksonville Center
01:25PM 32.0139 -78.3994 198° South 411 473 38,000  Level Jacksonville Center
01:26PM 31.9086 -78.4386 198° South 418 481 38,000  Level Jacksonville Center
01:27PM 31.7975 -78.4808 199° South 430 495 38,000  Level Jacksonville Center
01:28PM 31.6864 -78.5250 197° South 422 486 38,000  Level Jacksonville Center
01:29PM 31.5792 -78.5642 197° South 409 471 38,000  Level Jacksonville Center
01:30PM 31.4697 -78.6033 197° South 406 467 38,000  Level Jacksonville Center
01:31PM 31.3625 -78.6425 198° South 406 467 38,000  Level Jacksonville Center
01:32PM 31.2511 -78.6839 198° South 431 496 38,000  Level Jacksonville Center
01:33PM 31.1419 -78.7253 198° South 412 474 38,000  Level Jacksonville Center
01:34PM 31.0347 -78.7664 197° South 408 470 38,000  Level Jacksonville Center
01:35PM 30.8544 -78.8311 198° South 412 474 38,000  Level Miami Center
01:36PM 30.7456 -78.8725 197° South 407 468 38,000  Level Miami Center
01:37PM 30.6367 -78.9114 198° South 412 474 38,000  Level Miami Center
01:38PM 30.5275 -78.9525 197° South 412 474 38,000  Level Miami Center
01:39PM 30.4208 -78.9914 201° Southwest 412 474 38,000  Level Miami Center
01:40PM 30.3158 -79.0372 200° South 412 474 38,000  Level Miami Center
01:41PM 30.2047 -79.0853 200° South 412 474 38,000  Level Miami Center
01:42PM 30.0956 -79.1311 204° Southwest 412 474 38,000  Level Miami Center
01:43PM 29.9967 -79.1817 200° South 412 474 38,000  Level Miami Center
01:44PM 29.8917 -79.2250 199° South 406 467 38,000 -60 Level Miami Center
01:45PM 29.7806 -79.2703 203° Southwest 406 467 37,900 -420 Descending Miami Center
01:46PM 29.6775 -79.3206 200° South 411 473 37,200 -900 Descending Miami Center
01:47PM 29.5681 -79.3658 203° Southwest 416 479 36,200 -1,020 Descending Miami Center
01:48PM 29.4672 -79.4158 198° South 411 473 35,200 -1,020 Descending Miami Center
01:49PM 29.3622 -79.4561 201° Southwest 411 473 34,200 -1,200 Descending Miami Center
01:50PM 29.2569 -79.5014 199° South 411 473 32,800 -1,680 Descending Miami Center
01:51PM 29.1519 -79.5439 201° Southwest 406 467 30,900 -1,980 Descending Miami Center
01:52PM 29.0489 -79.5889 201° Southwest 406 467 28,900 -1,500 Descending Miami Center
01:53PM 28.9478 -79.6339 230° Southwest 400 460 28,000 -480 Descending Miami Center
01:54PM 28.8856 -79.7200 234° Southwest 373 429 28,000  Level Miami Center
01:55PM 28.8253 -79.8133 231° Southwest 364 419 28,000  Level Miami Center
01:56PM 28.7631 -79.9014 234° Southwest 364 419 28,000  Level Miami Center
01:57PM 28.7047 -79.9922 233° Southwest 364 419 28,000 -300 Level Miami Center
01:58PM 28.6442 -80.0828 233° Southwest 358 412 27,500 -1,020 Descending Miami Center
01:59PM 28.5794 -80.1803 232° Southwest 376 433 26,000 -1,680 Descending Miami Center
02:00PM 28.5081 -80.2844 243° Southwest 384 442 24,200 -1,560 Descending Miami Center
02:01PM 28.4597 -80.3914 246° West 378 435 22,900 -1,200 Descending Miami Center
02:02PM 28.4172 -80.4986 245° Southwest 378 435 21,900 -1,020 Descending Miami Center
02:03PM 28.3772 -80.5942 246° West 378 435 20,900 -960 Descending Miami Center
02:04PM 28.3347 -80.7011 245° Southwest 378 435 20,000 -480 Descending Miami Center
02:05PM 28.2922 -80.8058 244° Southwest 372 428 20,000  Level Miami Center
02:06PM 28.2478 -80.9081 247° West 372 428 20,000  Level Miami Center
02:07PM 28.2072 -81.0147 246° West 372 428 20,000  Level Miami Center
02:08PM 28.1619 -81.1286 245° Southwest 372 428 20,000  Level Miami Center
02:09PM 28.1239 -81.2211 245° Southwest 372 428 20,000  Level Miami Center
02:10PM 28.0808 -81.3278 232° Southwest 372 428 20,000  Level Miami Center
02:11PM 28.0175 -81.4194 210° Southwest 367 422 20,000 -420 Level Miami Center
02:12PM 27.9300 -81.4769 179° South 372 428 19,200 -900 Descending Miami Center
02:13PM 27.8300 -81.4753 180° South 338 389 18,200 -1,080 Descending Miami Center
02:14PM 27.7194 -81.4753 179° South 352 405 17,100 -1,080 Descending Miami Center
02:15PM 27.6192 -81.4736 182° South 358 412 16,100 -1,020 Descending Miami Center
02:16PM 27.5211 -81.4767 181° South 358 412 15,100 -1,020 Descending Miami Center
02:17PM 27.4272 -81.4778 180° South 358 412 14,100 -1,020 Descending Miami Center
02:18PM 27.3289 -81.4783 181° South 353 406 13,100 -1,020 Descending Miami Center
02:19PM 27.2392 -81.4794 182° South 343 395 12,100 -1,020 Descending Miami Center
02:20PM 27.1450 -81.4828 181° South 343 395 11,100 -960 Descending Miami Center
02:21PM 27.0553 -81.4839 168° South 338 389 10,200 -600 Descending Miami Center
02:22PM 26.9828 -81.4669 158° South 309 356 10,000 -300 Descending Miami Center
02:23PM 26.9169 -81.4364 155° Southeast 271 312 9,600 -1,320 Descending Miami Center
02:24PM 26.8389 -81.3961 181° South 273 314 7,400 -1,560 Descending Miami Center
02:25PM 26.7700 -81.3981 219° Southwest 250 288 6,500 -1,020 Descending Miami Center
02:26PM 26.7228 -81.4406 224° Southwest 210 242 5,400 -1,020 Descending Miami Center
02:27PM 26.6839 -81.4831 247° West 215 247 4,500 -840 Descending Miami Center
02:28PM 26.6611 -81.5425 246° West 215 247 3,800 -840 Descending Miami Center
02:29PM 26.6383 -81.5997 201° Southwest 192 221 2,900 -900 Descending Miami Center
02:37PM 26.4619 -81.6770 318° Northwest  Level FlightAware Approximate
02:38PM 26.5333 -81.7500 302° West  Level FlightAware Approximate
02:39PM 26.5958 -81.8640 121° Southeast  Level Estimated
02:40PM 26.5333 -81.7500 302° West  Level FlightAware Approximate
02:41PM 26.5958 -81.8640 302° West  Level Estimated